createdAt,value
2017-05-31T00:00:21.239Z,17.44
2017-05-31T00:01:22.662Z,17.26
2017-05-31T00:02:24.090Z,17.23
2017-05-31T00:03:25.519Z,17.35
2017-05-31T00:04:26.940Z,17.44
2017-05-31T00:05:28.364Z,17.25
2017-05-31T00:06:29.789Z,17.00
2017-05-31T00:07:31.213Z,16.93
2017-05-31T00:08:32.640Z,17.20
2017-05-31T00:09:34.068Z,16.95
2017-05-31T00:10:35.494Z,17.04
2017-05-31T00:11:36.922Z,17.17
2017-05-31T00:12:38.348Z,17.38
2017-05-31T00:13:39.776Z,17.22
2017-05-31T00:14:41.204Z,17.11
2017-05-31T00:15:42.635Z,17.23
2017-05-31T00:16:44.058Z,17.23
2017-05-31T00:17:45.478Z,17.25
2017-05-31T00:18:46.903Z,17.06
2017-05-31T00:19:48.326Z,17.17
2017-05-31T00:20:49.743Z,16.98
2017-05-31T00:21:51.167Z,16.95
2017-05-31T00:22:52.596Z,16.93
2017-05-31T00:23:54.025Z,17.06
2017-05-31T00:24:55.441Z,17.10
2017-05-31T00:25:56.879Z,17.13
2017-05-31T00:26:58.305Z,17.13
2017-05-31T00:27:59.724Z,17.22
2017-05-31T00:29:01.154Z,17.32
2017-05-31T00:30:02.578Z,17.18
2017-05-31T00:31:04.005Z,17.11
2017-05-31T00:32:05.427Z,17.23
2017-05-31T00:33:06.856Z,17.26
2017-05-31T00:34:08.282Z,17.46
2017-05-31T00:35:09.706Z,17.07
2017-05-31T00:36:11.132Z,17.11
2017-05-31T00:37:12.555Z,17.26
2017-05-31T00:38:13.982Z,17.36
2017-05-31T00:39:15.402Z,17.35
2017-05-31T00:40:18.062Z,17.22
2017-05-31T00:41:19.489Z,17.18
2017-05-31T00:42:20.913Z,17.33
2017-05-31T00:43:22.335Z,17.32
2017-05-31T00:44:23.762Z,17.22
2017-05-31T00:45:25.182Z,16.98
2017-05-31T00:46:26.607Z,17.08
2017-05-31T00:47:28.031Z,17.07
2017-05-31T00:48:29.454Z,17.13
2017-05-31T00:49:30.879Z,17.07
2017-05-31T00:50:32.307Z,17.14
2017-05-31T00:51:33.732Z,16.99
2017-05-31T00:52:35.159Z,17.07
2017-05-31T00:53:36.585Z,17.13
2017-05-31T00:54:38.015Z,17.14
2017-05-31T00:55:39.433Z,17.00
2017-05-31T00:56:40.857Z,17.14
2017-05-31T00:57:42.285Z,17.04
2017-05-31T00:58:43.707Z,17.18
2017-05-31T00:59:45.981Z,17.11
2017-05-31T01:00:47.406Z,17.06
2017-05-31T01:01:49.308Z,16.99
2017-05-31T01:02:50.728Z,16.99
2017-05-31T01:03:52.163Z,16.98
2017-05-31T01:04:53.592Z,16.90
2017-05-31T01:05:55.012Z,16.86
2017-05-31T01:06:56.439Z,16.63
2017-05-31T01:07:57.863Z,16.67
2017-05-31T01:08:59.289Z,16.83
2017-05-31T01:10:00.715Z,16.77
2017-05-31T01:11:02.135Z,16.85
2017-05-31T01:12:03.563Z,16.88
2017-05-31T01:13:04.980Z,16.85
2017-05-31T01:14:06.402Z,16.90
2017-05-31T01:15:07.829Z,16.98
2017-05-31T01:16:09.246Z,17.00
2017-05-31T01:17:10.677Z,16.86
2017-05-31T01:18:12.105Z,16.90
2017-05-31T01:19:13.533Z,16.86
2017-05-31T01:20:14.956Z,16.78
2017-05-31T01:21:16.379Z,16.81
2017-05-31T01:22:17.804Z,16.86
2017-05-31T01:23:19.233Z,16.83
2017-05-31T01:24:20.659Z,16.92
2017-05-31T01:25:22.080Z,16.75
2017-05-31T01:26:23.509Z,16.56
2017-05-31T01:27:24.933Z,16.68
2017-05-31T01:28:26.352Z,16.77
2017-05-31T01:29:27.777Z,16.59
2017-05-31T01:30:29.205Z,16.65
2017-05-31T01:31:30.627Z,16.78
2017-05-31T01:32:32.061Z,16.85
2017-05-31T01:33:33.486Z,16.71
2017-05-31T01:34:34.932Z,16.70
2017-05-31T01:35:36.359Z,16.70
2017-05-31T01:36:37.779Z,16.74
2017-05-31T01:37:39.237Z,16.78
2017-05-31T01:38:40.677Z,16.86
2017-05-31T01:39:42.103Z,16.95
2017-05-31T01:40:43.528Z,16.98
2017-05-31T01:41:45.011Z,16.92
2017-05-31T01:42:46.430Z,16.71
2017-05-31T01:43:48.442Z,16.80
2017-05-31T01:44:49.895Z,16.53
2017-05-31T01:45:51.315Z,16.53
2017-05-31T01:46:52.749Z,16.65
2017-05-31T01:47:54.169Z,16.62
2017-05-31T01:48:55.594Z,16.67
2017-05-31T01:49:57.014Z,16.67
2017-05-31T01:50:58.441Z,16.81
2017-05-31T01:51:59.874Z,16.67
2017-05-31T01:53:01.297Z,16.67
2017-05-31T01:54:02.728Z,16.73
2017-05-31T01:55:04.146Z,16.55
2017-05-31T01:56:05.573Z,16.81
2017-05-31T01:57:06.997Z,16.55
2017-05-31T01:58:08.428Z,16.80
2017-05-31T01:59:09.851Z,16.90
2017-05-31T02:00:11.273Z,16.80
2017-05-31T02:01:12.694Z,16.70
2017-05-31T02:02:14.120Z,16.85
2017-05-31T02:03:15.542Z,16.80
2017-05-31T02:04:16.971Z,16.93
2017-05-31T02:05:18.392Z,16.95
2017-05-31T02:06:19.819Z,16.86
2017-05-31T02:07:21.237Z,16.93
2017-05-31T02:08:22.658Z,16.83
2017-05-31T02:09:24.083Z,16.55
2017-05-31T02:10:25.514Z,16.52
2017-05-31T02:11:26.937Z,16.67
2017-05-31T02:12:28.368Z,16.70
2017-05-31T02:13:29.789Z,16.74
2017-05-31T02:14:31.243Z,16.70
2017-05-31T02:15:32.681Z,16.73
2017-05-31T02:16:34.105Z,16.75
2017-05-31T02:17:35.536Z,16.65
2017-05-31T02:18:37.553Z,16.59
2017-05-31T02:19:38.978Z,16.45
2017-05-31T02:20:40.402Z,16.67
2017-05-31T02:21:41.826Z,16.74
2017-05-31T02:22:43.252Z,16.77
2017-05-31T02:23:44.673Z,16.75
2017-05-31T02:24:46.092Z,16.67
2017-05-31T02:25:47.518Z,16.71
2017-05-31T02:26:48.952Z,16.77
2017-05-31T02:27:50.373Z,16.63
2017-05-31T02:28:51.794Z,16.58
2017-05-31T02:29:53.225Z,16.55
2017-05-31T02:30:54.651Z,16.63
2017-05-31T02:31:56.070Z,16.56
2017-05-31T02:32:57.494Z,16.60
2017-05-31T02:33:58.928Z,16.68
2017-05-31T02:35:00.347Z,16.59
2017-05-31T02:36:01.773Z,16.52
2017-05-31T02:37:03.202Z,16.65
2017-05-31T02:38:04.623Z,16.65
2017-05-31T02:39:06.045Z,16.56
2017-05-31T02:40:07.470Z,16.52
2017-05-31T02:41:08.896Z,16.49
2017-05-31T02:42:10.311Z,16.55
2017-05-31T02:43:11.727Z,16.49
2017-05-31T02:44:13.160Z,16.45
2017-05-31T02:45:14.585Z,16.56
2017-05-31T02:46:16.010Z,16.37
2017-05-31T02:47:17.432Z,16.33
2017-05-31T02:48:18.858Z,16.38
2017-05-31T02:49:20.291Z,16.45
2017-05-31T02:50:21.709Z,16.22
2017-05-31T02:51:23.244Z,16.30
2017-05-31T02:52:24.667Z,16.04
2017-05-31T02:53:26.090Z,15.99
2017-05-31T02:54:27.513Z,16.09
2017-05-31T02:55:28.941Z,15.86
2017-05-31T02:56:30.360Z,16.20
2017-05-31T02:57:31.786Z,16.27
2017-05-31T02:58:33.225Z,16.27
2017-05-31T02:59:34.718Z,16.33
2017-05-31T03:00:36.853Z,16.33
2017-05-31T03:01:38.286Z,16.30
2017-05-31T03:02:39.704Z,16.40
2017-05-31T03:03:41.130Z,16.25
2017-05-31T03:04:42.558Z,16.33
2017-05-31T03:05:43.983Z,16.50
2017-05-31T03:06:45.401Z,16.40
2017-05-31T03:07:46.825Z,16.34
2017-05-31T03:08:48.251Z,16.40
2017-05-31T03:09:49.670Z,16.33
2017-05-31T03:10:51.096Z,16.26
2017-05-31T03:11:52.524Z,16.27
2017-05-31T03:12:53.946Z,16.52
2017-05-31T03:13:55.375Z,16.44
2017-05-31T03:14:56.792Z,16.38
2017-05-31T03:15:58.228Z,16.37
2017-05-31T03:16:59.643Z,16.35
2017-05-31T03:18:01.072Z,16.44
2017-05-31T03:19:02.492Z,16.41
2017-05-31T03:20:03.915Z,16.31
2017-05-31T03:21:05.337Z,16.30
2017-05-31T03:22:06.762Z,16.45
2017-05-31T03:23:08.193Z,16.48
2017-05-31T03:24:09.614Z,16.30
2017-05-31T03:25:11.041Z,16.30
2017-05-31T03:26:12.474Z,16.23
2017-05-31T03:27:13.900Z,16.35
2017-05-31T03:28:15.322Z,16.23
2017-05-31T03:29:16.740Z,16.40
2017-05-31T03:30:18.174Z,16.35
2017-05-31T03:31:19.594Z,16.34
2017-05-31T03:32:21.024Z,16.26
2017-05-31T03:33:22.440Z,16.25
2017-05-31T03:34:23.923Z,16.12
2017-05-31T03:35:25.291Z,16.35
2017-05-31T03:36:26.771Z,16.34
2017-05-31T03:37:28.195Z,16.25
2017-05-31T03:38:29.618Z,16.23
2017-05-31T03:39:31.043Z,16.18
2017-05-31T03:40:32.475Z,16.04
2017-05-31T03:41:33.891Z,16.06
2017-05-31T03:42:35.314Z,16.25
2017-05-31T03:43:36.759Z,16.26
2017-05-31T03:44:38.180Z,16.27
2017-05-31T03:45:39.615Z,16.20
2017-05-31T03:46:41.047Z,15.99
2017-05-31T03:47:42.481Z,16.12
2017-05-31T03:48:43.911Z,16.07
2017-05-31T03:49:45.338Z,16.20
2017-05-31T03:50:46.762Z,16.26
2017-05-31T03:51:48.732Z,16.07
2017-05-31T03:52:50.155Z,16.20
2017-05-31T03:53:51.579Z,15.99
2017-05-31T03:54:53.020Z,16.25
2017-05-31T03:55:54.443Z,16.22
2017-05-31T03:56:55.866Z,16.26
2017-05-31T03:57:57.303Z,16.42
2017-05-31T03:58:58.729Z,16.41
2017-05-31T04:00:00.160Z,16.44
2017-05-31T04:01:02.489Z,16.40
2017-05-31T04:02:02.976Z,16.34
2017-05-31T04:03:04.410Z,16.35
2017-05-31T04:04:05.839Z,16.33
2017-05-31T04:05:07.262Z,16.23
2017-05-31T04:06:08.689Z,16.27
2017-05-31T04:07:10.117Z,16.35
2017-05-31T04:08:11.547Z,16.38
2017-05-31T04:09:12.976Z,16.34
2017-05-31T04:10:14.399Z,16.41
2017-05-31T04:11:15.823Z,16.44
2017-05-31T04:12:17.289Z,16.27
2017-05-31T04:13:18.717Z,16.50
2017-05-31T04:14:20.144Z,16.56
2017-05-31T04:15:21.571Z,16.55
2017-05-31T04:16:23.005Z,16.55
2017-05-31T04:17:24.438Z,16.50
2017-05-31T04:18:25.865Z,16.58
2017-05-31T04:19:27.296Z,16.63
2017-05-31T04:20:28.830Z,16.50
2017-05-31T04:21:30.256Z,16.58
2017-05-31T04:22:31.686Z,16.59
2017-05-31T04:23:33.118Z,16.53
2017-05-31T04:24:34.546Z,16.23
2017-05-31T04:25:35.968Z,16.38
2017-05-31T04:26:37.394Z,16.48
2017-05-31T04:27:38.910Z,16.30
2017-05-31T04:28:40.332Z,16.31
2017-05-31T04:29:41.763Z,16.45
2017-05-31T04:30:43.188Z,16.55
2017-05-31T04:31:44.623Z,16.44
2017-05-31T04:32:46.052Z,16.38
2017-05-31T04:33:47.483Z,16.49
2017-05-31T04:34:48.906Z,16.40
2017-05-31T04:35:50.343Z,16.49
2017-05-31T04:36:51.776Z,16.45
2017-05-31T04:37:53.201Z,16.59
2017-05-31T04:38:54.623Z,16.38
2017-05-31T04:39:56.047Z,16.42
2017-05-31T04:40:57.476Z,16.40
2017-05-31T04:41:58.906Z,16.52
2017-05-31T04:43:00.336Z,16.52
2017-05-31T04:44:01.760Z,16.52
2017-05-31T04:45:03.189Z,16.52
2017-05-31T04:46:04.614Z,16.38
2017-05-31T04:47:06.047Z,16.38
2017-05-31T04:48:07.476Z,16.34
2017-05-31T04:49:08.911Z,16.44
2017-05-31T04:50:10.330Z,16.48
2017-05-31T04:51:11.760Z,16.49
2017-05-31T04:52:13.186Z,16.30
2017-05-31T04:53:14.618Z,16.35
2017-05-31T04:54:16.048Z,16.37
2017-05-31T04:55:17.468Z,16.48
2017-05-31T04:56:18.892Z,16.38
2017-05-31T04:57:20.315Z,16.50
2017-05-31T04:58:21.741Z,16.67
2017-05-31T04:59:23.164Z,16.59
2017-05-31T05:00:24.590Z,16.53
2017-05-31T05:01:26.019Z,16.49
2017-05-31T05:02:27.450Z,16.53
2017-05-31T05:03:28.885Z,16.58
2017-05-31T05:04:30.315Z,16.70
2017-05-31T05:05:31.735Z,16.63
2017-05-31T05:06:33.160Z,16.58
2017-05-31T05:07:34.586Z,16.67
2017-05-31T05:08:36.012Z,16.75
2017-05-31T05:09:37.443Z,16.78
2017-05-31T05:10:38.861Z,16.70
2017-05-31T05:11:40.289Z,16.88
2017-05-31T05:12:41.715Z,16.89
2017-05-31T05:13:43.137Z,16.78
2017-05-31T05:14:44.564Z,16.81
2017-05-31T05:15:45.987Z,16.95
2017-05-31T05:16:47.410Z,16.95
2017-05-31T05:17:48.835Z,17.07
2017-05-31T05:18:50.261Z,17.08
2017-05-31T05:19:51.688Z,17.06
2017-05-31T05:20:53.116Z,17.17
2017-05-31T05:21:54.549Z,17.08
2017-05-31T05:22:55.975Z,16.99
2017-05-31T05:23:57.403Z,16.81
2017-05-31T05:24:58.887Z,16.89
2017-05-31T05:26:00.311Z,16.83
2017-05-31T05:27:01.734Z,16.92
2017-05-31T05:28:03.164Z,16.98
2017-05-31T05:29:04.593Z,17.04
2017-05-31T05:30:06.013Z,17.00
2017-05-31T05:31:07.442Z,17.03
2017-05-31T05:32:08.872Z,17.07
2017-05-31T05:33:10.308Z,16.98
2017-05-31T05:34:11.734Z,17.10
2017-05-31T05:35:13.165Z,17.07
2017-05-31T05:36:14.586Z,17.20
2017-05-31T05:37:16.006Z,17.20
2017-05-31T05:38:17.434Z,17.22
2017-05-31T05:39:18.856Z,17.32
2017-05-31T05:40:20.283Z,17.20
2017-05-31T05:41:21.711Z,17.40
2017-05-31T05:42:23.139Z,17.25
2017-05-31T05:43:24.580Z,17.22
2017-05-31T05:44:26.003Z,17.29
2017-05-31T05:45:27.430Z,17.36
2017-05-31T05:46:28.854Z,17.28
2017-05-31T05:47:30.282Z,17.32
2017-05-31T05:48:31.712Z,17.41
2017-05-31T05:49:33.141Z,17.20
2017-05-31T05:50:34.565Z,17.08
2017-05-31T05:51:35.997Z,17.25
2017-05-31T05:52:37.485Z,17.26
2017-05-31T05:53:38.857Z,17.28
2017-05-31T05:54:40.285Z,17.22
2017-05-31T05:55:41.719Z,17.35
2017-05-31T05:56:43.143Z,17.46
2017-05-31T05:57:44.576Z,17.32
2017-05-31T05:58:46.003Z,17.36
2017-05-31T05:59:47.430Z,17.44
2017-05-31T06:00:48.859Z,17.38
2017-05-31T06:01:50.286Z,17.33
2017-05-31T06:02:51.717Z,17.36
2017-05-31T06:03:53.144Z,17.36
2017-05-31T06:04:54.573Z,17.35
2017-05-31T06:05:55.998Z,17.32
2017-05-31T06:06:57.440Z,17.36
2017-05-31T06:07:58.866Z,17.44
2017-05-31T06:09:00.294Z,17.40
2017-05-31T06:10:01.726Z,17.41
2017-05-31T06:11:03.158Z,17.40
2017-05-31T06:12:04.586Z,17.29
2017-05-31T06:13:06.010Z,17.28
2017-05-31T06:14:07.442Z,17.26
2017-05-31T06:15:08.871Z,17.20
2017-05-31T06:16:10.302Z,17.20
2017-05-31T06:17:11.725Z,17.41
2017-05-31T06:18:13.171Z,17.57
2017-05-31T06:19:14.595Z,17.35
2017-05-31T06:20:16.021Z,17.36
2017-05-31T06:21:17.451Z,17.22
2017-05-31T06:22:18.876Z,17.47
2017-05-31T06:23:20.309Z,17.25
2017-05-31T06:24:21.736Z,17.48
2017-05-31T06:25:23.160Z,17.54
2017-05-31T06:26:24.582Z,17.36
2017-05-31T06:27:26.009Z,17.47
2017-05-31T06:28:27.441Z,17.44
2017-05-31T06:29:28.878Z,17.46
2017-05-31T06:30:30.302Z,17.43
2017-05-31T06:31:31.728Z,17.53
2017-05-31T06:32:33.365Z,17.62
2017-05-31T06:33:34.808Z,17.64
2017-05-31T06:34:36.231Z,17.55
2017-05-31T06:35:37.658Z,17.64
2017-05-31T06:36:39.087Z,17.48
2017-05-31T06:37:40.510Z,17.64
2017-05-31T06:38:41.937Z,17.67
2017-05-31T06:39:43.366Z,17.50
2017-05-31T06:40:44.796Z,17.57
2017-05-31T06:41:46.226Z,17.66
2017-05-31T06:42:47.658Z,17.74
2017-05-31T06:43:49.116Z,17.53
2017-05-31T06:44:50.543Z,17.59
2017-05-31T06:45:51.974Z,17.59
2017-05-31T06:46:53.400Z,17.51
2017-05-31T06:47:54.824Z,17.62
2017-05-31T06:48:56.252Z,17.40
2017-05-31T06:49:57.679Z,17.35
2017-05-31T06:50:59.108Z,17.57
2017-05-31T06:52:00.532Z,17.74
2017-05-31T06:53:01.958Z,17.71
2017-05-31T06:54:03.387Z,17.76
2017-05-31T06:55:04.933Z,17.69
2017-05-31T06:56:06.364Z,17.62
2017-05-31T06:57:07.793Z,17.69
2017-05-31T06:58:09.229Z,17.87
2017-05-31T06:59:10.660Z,17.85
2017-05-31T07:00:12.090Z,18.00
2017-05-31T07:01:13.514Z,18.02
2017-05-31T07:02:14.941Z,18.02
2017-05-31T07:03:16.369Z,17.89
2017-05-31T07:04:17.797Z,17.82
2017-05-31T07:05:19.222Z,17.78
2017-05-31T07:06:20.650Z,17.85
2017-05-31T07:07:22.075Z,17.91
2017-05-31T07:08:23.511Z,17.91
2017-05-31T07:09:24.938Z,17.73
2017-05-31T07:10:27.245Z,17.82
2017-05-31T07:11:28.677Z,17.87
2017-05-31T07:12:30.116Z,17.97
2017-05-31T07:13:31.532Z,17.87
2017-05-31T07:14:32.961Z,17.95
2017-05-31T07:15:34.391Z,17.95
2017-05-31T07:16:35.817Z,17.97
2017-05-31T07:17:37.236Z,18.03
2017-05-31T07:18:38.667Z,17.97
2017-05-31T07:19:40.099Z,18.06
2017-05-31T07:20:41.522Z,18.06
2017-05-31T07:21:42.955Z,18.17
2017-05-31T07:22:44.387Z,18.09
2017-05-31T07:23:45.818Z,18.00
2017-05-31T07:24:47.250Z,18.04
2017-05-31T07:25:48.678Z,18.17
2017-05-31T07:26:50.106Z,18.18
2017-05-31T07:27:51.535Z,18.13
2017-05-31T07:28:52.964Z,18.12
2017-05-31T07:29:54.397Z,18.19
2017-05-31T07:30:55.876Z,18.22
2017-05-31T07:31:57.250Z,18.21
2017-05-31T07:32:58.675Z,18.17
2017-05-31T07:34:00.106Z,18.17
2017-05-31T07:35:01.541Z,18.33
2017-05-31T07:36:02.967Z,18.33
2017-05-31T07:37:04.402Z,18.29
2017-05-31T07:38:05.827Z,18.54
2017-05-31T07:39:07.264Z,18.47
2017-05-31T07:40:08.695Z,18.62
2017-05-31T07:41:10.143Z,18.57
2017-05-31T07:42:11.578Z,18.46
2017-05-31T07:43:13.008Z,18.34
2017-05-31T07:44:14.435Z,18.55
2017-05-31T07:45:15.864Z,18.54
2017-05-31T07:46:17.296Z,18.52
2017-05-31T07:47:18.734Z,18.67
2017-05-31T07:48:20.163Z,18.62
2017-05-31T07:49:21.591Z,18.59
2017-05-31T07:50:23.018Z,18.65
2017-05-31T07:51:24.453Z,18.90
2017-05-31T07:52:25.884Z,18.76
2017-05-31T07:53:27.319Z,18.68
2017-05-31T07:54:28.754Z,18.98
2017-05-31T07:55:30.179Z,18.86
2017-05-31T07:56:31.615Z,18.74
2017-05-31T07:57:33.042Z,18.90
2017-05-31T07:58:34.468Z,18.99
2017-05-31T07:59:35.902Z,18.65
2017-05-31T08:00:37.383Z,18.50
2017-05-31T08:01:38.820Z,18.46
2017-05-31T08:02:40.251Z,18.49
2017-05-31T08:03:41.675Z,18.44
2017-05-31T08:04:43.169Z,18.67
2017-05-31T08:05:44.618Z,18.62
2017-05-31T08:06:46.043Z,18.68
2017-05-31T08:07:47.467Z,18.92
2017-05-31T08:08:48.907Z,18.62
2017-05-31T08:09:50.328Z,18.62
2017-05-31T08:10:51.758Z,18.55
2017-05-31T08:11:53.199Z,18.43
2017-05-31T08:12:54.622Z,18.44
2017-05-31T08:13:56.058Z,18.43
2017-05-31T08:14:57.483Z,18.39
2017-05-31T08:15:58.929Z,18.42
2017-05-31T08:17:00.350Z,18.94
2017-05-31T08:18:01.778Z,18.74
2017-05-31T08:19:03.202Z,18.62
2017-05-31T08:20:04.628Z,18.64
2017-05-31T08:21:06.051Z,18.83
2017-05-31T08:22:07.474Z,18.87
2017-05-31T08:23:08.900Z,18.65
2017-05-31T08:24:10.326Z,19.14
2017-05-31T08:25:11.750Z,19.13
2017-05-31T08:26:13.174Z,19.11
2017-05-31T08:27:14.602Z,19.06
2017-05-31T08:28:16.026Z,19.31
2017-05-31T08:29:17.450Z,19.08
2017-05-31T08:30:18.879Z,18.98
2017-05-31T08:31:20.305Z,19.17
2017-05-31T08:32:21.742Z,19.35
2017-05-31T08:33:23.168Z,19.43
2017-05-31T08:34:24.605Z,19.39
2017-05-31T08:35:26.040Z,19.69
2017-05-31T08:36:27.469Z,19.76
2017-05-31T08:37:28.894Z,19.88
2017-05-31T08:38:30.321Z,19.80
2017-05-31T08:39:31.747Z,19.70
2017-05-31T08:40:33.181Z,19.53
2017-05-31T08:41:34.611Z,19.70
2017-05-31T08:42:36.040Z,19.61
2017-05-31T08:43:37.467Z,19.80
2017-05-31T08:44:38.901Z,19.97
2017-05-31T08:45:40.324Z,20.03
2017-05-31T08:46:41.750Z,20.08
2017-05-31T08:47:43.177Z,20.08
2017-05-31T08:48:44.602Z,20.21
2017-05-31T08:49:46.034Z,20.23
2017-05-31T08:50:47.471Z,20.49
2017-05-31T08:51:48.898Z,20.38
2017-05-31T08:52:50.358Z,20.53
2017-05-31T08:53:51.779Z,20.51
2017-05-31T08:54:53.217Z,20.34
2017-05-31T08:55:54.643Z,20.20
2017-05-31T08:56:56.065Z,19.98
2017-05-31T08:57:57.496Z,19.95
2017-05-31T08:58:58.925Z,20.20
2017-05-31T09:00:00.356Z,20.39
2017-05-31T09:01:02.758Z,20.33
2017-05-31T09:02:04.189Z,20.33
2017-05-31T09:03:05.624Z,20.58
2017-05-31T09:04:07.055Z,20.65
2017-05-31T09:05:08.482Z,20.86
2017-05-31T09:06:09.921Z,20.98
2017-05-31T09:07:11.352Z,21.02
2017-05-31T09:08:12.783Z,20.81
2017-05-31T09:09:14.203Z,20.89
2017-05-31T09:10:15.637Z,20.66
2017-05-31T09:11:17.064Z,20.41
2017-05-31T09:12:18.503Z,20.71
2017-05-31T09:13:19.928Z,20.86
2017-05-31T09:14:21.360Z,21.02
2017-05-31T09:15:22.793Z,20.93
2017-05-31T09:16:24.232Z,21.11
2017-05-31T09:17:25.655Z,20.71
2017-05-31T09:18:27.086Z,20.69
2017-05-31T09:19:28.518Z,20.56
2017-05-31T09:20:29.954Z,20.74
2017-05-31T09:21:31.390Z,21.21
2017-05-31T09:22:32.821Z,21.09
2017-05-31T09:23:34.250Z,21.27
2017-05-31T09:24:35.682Z,21.27
2017-05-31T09:25:37.154Z,21.27
2017-05-31T09:26:38.598Z,21.17
2017-05-31T09:27:40.031Z,21.30
2017-05-31T09:28:41.463Z,21.27
2017-05-31T09:29:42.896Z,21.17
2017-05-31T09:30:44.330Z,21.32
2017-05-31T09:31:45.770Z,21.36
2017-05-31T09:32:47.204Z,21.44
2017-05-31T09:33:48.640Z,21.44
2017-05-31T09:34:50.068Z,21.46
2017-05-31T09:35:51.499Z,21.57
2017-05-31T09:36:52.938Z,21.46
2017-05-31T09:37:54.371Z,21.50
2017-05-31T09:38:55.795Z,21.54
2017-05-31T09:39:57.225Z,21.72
2017-05-31T09:40:58.660Z,21.38
2017-05-31T09:42:00.090Z,21.24
2017-05-31T09:43:01.520Z,21.44
2017-05-31T09:44:02.964Z,21.29
2017-05-31T09:45:04.396Z,21.30
2017-05-31T09:46:05.843Z,21.17
2017-05-31T09:47:07.271Z,20.90
2017-05-31T09:48:08.698Z,21.08
2017-05-31T09:49:10.131Z,21.20
2017-05-31T09:50:11.564Z,21.21
2017-05-31T09:51:13.002Z,21.66
2017-05-31T09:52:14.437Z,21.57
2017-05-31T09:53:15.871Z,21.50
2017-05-31T09:54:17.306Z,21.99
2017-05-31T09:55:18.740Z,21.75
2017-05-31T09:56:20.164Z,22.19
2017-05-31T09:57:21.598Z,22.52
2017-05-31T09:58:23.030Z,22.62
2017-05-31T09:59:24.463Z,22.47
2017-05-31T10:00:25.901Z,22.27
2017-05-31T10:01:27.330Z,22.25
2017-05-31T10:02:28.765Z,22.10
2017-05-31T10:03:30.194Z,22.16
2017-05-31T10:04:31.642Z,22.13
2017-05-31T10:05:33.073Z,21.85
2017-05-31T10:06:34.508Z,21.75
2017-05-31T10:07:35.935Z,21.81
2017-05-31T10:08:37.368Z,22.28
2017-05-31T10:09:38.803Z,22.49
2017-05-31T10:10:40.235Z,22.29
2017-05-31T10:11:41.670Z,21.98
2017-05-31T10:12:43.107Z,22.14
2017-05-31T10:13:44.545Z,22.29
2017-05-31T10:14:45.979Z,22.56
2017-05-31T10:15:47.408Z,22.74
2017-05-31T10:16:48.856Z,22.41
2017-05-31T10:17:50.282Z,22.74
2017-05-31T10:18:51.710Z,22.17
2017-05-31T10:19:53.150Z,22.17
2017-05-31T10:20:54.581Z,22.12
2017-05-31T10:21:56.024Z,21.94
2017-05-31T10:22:57.461Z,21.75
2017-05-31T10:23:58.901Z,21.57
2017-05-31T10:25:00.333Z,21.67
2017-05-31T10:26:01.769Z,21.63
2017-05-31T10:27:03.215Z,21.44
2017-05-31T10:28:04.648Z,21.56
2017-05-31T10:29:06.073Z,21.63
2017-05-31T10:30:07.502Z,21.51
2017-05-31T10:31:08.968Z,21.76
2017-05-31T10:32:10.509Z,21.76
2017-05-31T10:33:11.956Z,21.83
2017-05-31T10:34:13.390Z,21.75
2017-05-31T10:35:14.826Z,21.32
2017-05-31T10:36:16.260Z,21.23
2017-05-31T10:37:18.252Z,21.19
2017-05-31T10:38:19.687Z,21.32
2017-05-31T10:39:21.228Z,21.87
2017-05-31T10:40:22.660Z,21.92
2017-05-31T10:41:24.094Z,21.69
2017-05-31T10:42:25.521Z,21.63
2017-05-31T10:43:26.960Z,21.64
2017-05-31T10:44:28.386Z,21.69
2017-05-31T10:45:30.608Z,21.69
2017-05-31T10:46:32.037Z,21.54
2017-05-31T10:47:33.466Z,21.46
2017-05-31T10:48:34.893Z,21.38
2017-05-31T10:49:36.476Z,21.29
2017-05-31T10:50:37.903Z,21.24
2017-05-31T10:51:39.329Z,21.17
2017-05-31T10:52:40.761Z,21.20
2017-05-31T10:53:42.190Z,21.30
2017-05-31T10:54:43.618Z,21.42
2017-05-31T10:55:45.047Z,21.42
2017-05-31T10:56:46.480Z,21.59
2017-05-31T10:57:47.920Z,21.72
2017-05-31T10:58:49.365Z,22.01
2017-05-31T10:59:50.804Z,22.34
2017-05-31T11:00:52.234Z,22.67
2017-05-31T11:01:53.676Z,22.22
2017-05-31T11:02:55.108Z,22.01
2017-05-31T11:03:56.540Z,22.49
2017-05-31T11:04:57.973Z,22.74
2017-05-31T11:05:59.405Z,23.17
2017-05-31T11:07:00.841Z,23.46
2017-05-31T11:08:02.267Z,23.65
2017-05-31T11:09:03.698Z,23.55
2017-05-31T11:10:05.136Z,23.57
2017-05-31T11:11:06.563Z,23.53
2017-05-31T11:12:07.994Z,23.27
2017-05-31T11:13:09.431Z,23.32
2017-05-31T11:14:10.866Z,23.50
2017-05-31T11:15:12.298Z,23.94
2017-05-31T11:16:13.735Z,24.24
2017-05-31T11:17:15.167Z,24.73
2017-05-31T11:18:16.599Z,24.19
2017-05-31T11:19:18.028Z,24.35
2017-05-31T11:20:19.463Z,23.98
2017-05-31T11:21:20.892Z,23.68
2017-05-31T11:22:22.332Z,23.50
2017-05-31T11:23:23.759Z,23.32
2017-05-31T11:24:25.201Z,23.20
2017-05-31T11:25:26.637Z,22.60
2017-05-31T11:26:28.066Z,22.41
2017-05-31T11:27:29.493Z,21.95
2017-05-31T11:28:30.922Z,21.98
2017-05-31T11:29:32.356Z,21.82
2017-05-31T11:30:33.790Z,21.66
2017-05-31T11:31:40.543Z,21.81
2017-05-31T11:32:42.090Z,22.23
2017-05-31T11:33:43.488Z,21.99
2017-05-31T11:34:44.930Z,22.25
2017-05-31T11:35:46.368Z,22.28
2017-05-31T11:36:47.802Z,22.13
2017-05-31T11:37:49.233Z,22.47
2017-05-31T11:38:50.666Z,22.78
2017-05-31T11:39:52.092Z,23.04
2017-05-31T11:40:53.521Z,23.14
2017-05-31T11:41:54.946Z,23.45
2017-05-31T11:42:56.393Z,23.38
2017-05-31T11:43:57.825Z,22.89
2017-05-31T11:44:59.250Z,22.53
2017-05-31T11:46:00.684Z,22.19
2017-05-31T11:47:02.115Z,21.81
2017-05-31T11:48:03.549Z,21.60
2017-05-31T11:49:04.981Z,21.60
2017-05-31T11:50:06.406Z,21.42
2017-05-31T11:51:07.833Z,21.54
2017-05-31T11:52:09.274Z,21.76
2017-05-31T11:53:10.711Z,21.81
2017-05-31T11:54:12.138Z,21.83
2017-05-31T11:55:13.565Z,22.01
2017-05-31T11:56:15.001Z,22.10
2017-05-31T11:57:16.434Z,22.14
2017-05-31T11:58:17.877Z,22.19
2017-05-31T11:59:19.316Z,22.25
2017-05-31T12:00:20.751Z,22.89
2017-05-31T12:01:22.185Z,23.35
2017-05-31T12:02:23.620Z,23.76
2017-05-31T12:03:25.051Z,23.71
2017-05-31T12:04:26.486Z,23.90
2017-05-31T12:05:27.919Z,23.71
2017-05-31T12:06:29.351Z,23.85
2017-05-31T12:07:30.783Z,24.32
2017-05-31T12:08:32.223Z,24.22
2017-05-31T12:09:33.654Z,24.49
2017-05-31T12:10:35.095Z,24.50
2017-05-31T12:11:36.533Z,24.49
2017-05-31T12:12:37.970Z,24.22
2017-05-31T12:13:39.404Z,23.98
2017-05-31T12:14:40.839Z,24.32
2017-05-31T12:15:42.269Z,24.45
2017-05-31T12:16:43.701Z,24.87
2017-05-31T12:17:45.128Z,24.82
2017-05-31T12:18:46.564Z,24.97
2017-05-31T12:19:47.999Z,25.07
2017-05-31T12:20:49.435Z,24.56
2017-05-31T12:21:50.863Z,24.54
2017-05-31T12:22:52.289Z,24.63
2017-05-31T12:23:53.724Z,24.45
2017-05-31T12:24:55.165Z,24.61
2017-05-31T12:25:56.595Z,24.56
2017-05-31T12:26:58.030Z,24.75
2017-05-31T12:27:59.460Z,24.63
2017-05-31T12:29:00.891Z,24.20
2017-05-31T12:30:02.337Z,24.29
2017-05-31T12:31:03.770Z,24.67
2017-05-31T12:32:05.208Z,24.97
2017-05-31T12:33:06.628Z,24.82
2017-05-31T12:34:08.078Z,24.98
2017-05-31T12:35:09.514Z,25.28
2017-05-31T12:36:10.948Z,24.92
2017-05-31T12:37:12.383Z,24.94
2017-05-31T12:38:13.812Z,24.91
2017-05-31T12:39:15.250Z,24.94
2017-05-31T12:40:16.682Z,25.15
2017-05-31T12:41:18.113Z,25.32
2017-05-31T12:42:19.553Z,24.90
2017-05-31T12:43:20.997Z,24.68
2017-05-31T12:44:22.430Z,24.73
2017-05-31T12:45:23.873Z,24.56
2017-05-31T12:46:25.303Z,24.80
2017-05-31T12:47:26.736Z,25.19
2017-05-31T12:48:28.173Z,25.43
2017-05-31T12:49:29.602Z,25.53
2017-05-31T12:50:31.037Z,24.97
2017-05-31T12:51:32.474Z,25.02
2017-05-31T12:52:33.911Z,25.44
2017-05-31T12:53:35.346Z,25.59
2017-05-31T12:54:36.779Z,25.69
2017-05-31T12:55:38.218Z,25.68
2017-05-31T12:56:39.651Z,25.75
2017-05-31T12:57:41.083Z,25.43
2017-05-31T12:58:42.517Z,25.37
2017-05-31T12:59:43.948Z,25.05
2017-05-31T13:00:45.386Z,24.85
2017-05-31T13:01:46.860Z,24.53
2017-05-31T13:02:48.294Z,24.49
2017-05-31T13:03:50.468Z,24.41
2017-05-31T13:04:51.901Z,24.24
2017-05-31T13:05:53.338Z,24.26
2017-05-31T13:06:54.773Z,24.59
2017-05-31T13:07:56.208Z,24.45
2017-05-31T13:08:57.640Z,23.98
2017-05-31T13:09:59.074Z,23.97
2017-05-31T13:11:00.514Z,23.67